createdAt,value
2023-03-11T00:01:53.965Z,99500.56
2023-03-11T00:04:21.536Z,99494.41
2023-03-11T00:06:48.814Z,99497.38
2023-03-11T00:09:16.151Z,99497.38
2023-03-11T00:11:43.813Z,99501.22
2023-03-11T00:14:11.127Z,99502.50
2023-03-11T00:16:38.480Z,99489.81
2023-03-11T00:19:05.820Z,99488.41
2023-03-11T00:21:33.538Z,99486.28
2023-03-11T00:24:03.703Z,99480.38
2023-03-11T00:26:31.437Z,99483.44
2023-03-11T00:28:58.766Z,99491.03
2023-03-11T00:31:26.660Z,99493.03
2023-03-11T00:33:57.156Z,99494.22
2023-03-11T00:36:31.697Z,99490.53
2023-03-11T00:39:02.003Z,99482.94
2023-03-11T00:41:29.453Z,99487.09
2023-03-11T00:43:56.682Z,99486.97
2023-03-11T00:46:24.129Z,99501.44
2023-03-11T00:48:52.110Z,99485.75
2023-03-11T00:51:20.152Z,99480.78
2023-03-11T00:53:47.643Z,99477.13
2023-03-11T00:56:16.383Z,99478.50
2023-03-11T00:58:45.890Z,99465.00
2023-03-11T01:01:19.829Z,99475.44
2023-03-11T01:03:47.871Z,99490.41
2023-03-11T01:06:15.703Z,99473.69
2023-03-11T01:08:43.061Z,99460.06
2023-03-11T01:11:10.981Z,99449.63
2023-03-11T01:13:40.349Z,99436.59
2023-03-11T01:16:09.352Z,99434.13
2023-03-11T01:18:36.706Z,99436.13
2023-03-11T01:21:04.341Z,99432.41
2023-03-11T01:23:32.930Z,99416.78
2023-03-11T01:26:00.236Z,99409.81
2023-03-11T01:28:27.947Z,99400.25
2023-03-11T01:30:55.732Z,99404.28
2023-03-11T01:33:23.551Z,99407.25
2023-03-11T01:35:50.875Z,99417.81
2023-03-11T01:38:18.797Z,99434.88
2023-03-11T01:40:49.675Z,99432.38
2023-03-11T01:43:42.997Z,99403.59
2023-03-11T01:46:17.324Z,99404.78
2023-03-11T01:48:56.973Z,99400.38
2023-03-11T01:51:48.712Z,99398.38
2023-03-11T01:54:24.108Z,99391.03
2023-03-11T01:56:53.567Z,99383.81
2023-03-11T01:59:53.614Z,99392.56
2023-03-11T02:02:32.034Z,99374.44
2023-03-11T02:05:02.277Z,99381.19
2023-03-11T02:07:30.290Z,99367.47
2023-03-11T02:09:58.013Z,99379.81
2023-03-11T02:12:25.609Z,99378.59
2023-03-11T02:14:54.640Z,99361.78
2023-03-11T02:17:22.400Z,99369.63
2023-03-11T02:20:04.338Z,99369.84
2023-03-11T02:22:33.617Z,99358.84
2023-03-11T02:25:10.674Z,99349.50
2023-03-11T02:27:41.428Z,99360.50
2023-03-11T02:30:13.223Z,99350.44
2023-03-11T02:32:44.300Z,99354.56
2023-03-11T02:35:12.388Z,99354.22
2023-03-11T02:37:45.427Z,99342.53
2023-03-11T02:40:27.196Z,99342.88
2023-03-11T02:42:59.748Z,99355.91
2023-03-11T02:45:29.964Z,99366.66
2023-03-11T02:47:59.790Z,99368.78
2023-03-11T02:50:30.590Z,99359.69
2023-03-11T02:52:58.313Z,99353.03
2023-03-11T02:55:25.572Z,99358.00
2023-03-11T02:57:52.947Z,99353.66
2023-03-11T03:00:21.153Z,99355.75
2023-03-11T03:02:57.787Z,99354.69
2023-03-11T03:05:26.598Z,99359.66
2023-03-11T03:07:54.013Z,99344.28
2023-03-11T03:10:22.684Z,99339.22
2023-03-11T03:12:51.275Z,99348.69
2023-03-11T03:15:19.124Z,99348.06
2023-03-11T03:17:46.933Z,99326.53
2023-03-11T03:20:14.826Z,99323.22
2023-03-11T03:22:47.717Z,99310.19
2023-03-11T03:25:18.559Z,99304.97
2023-03-11T03:27:46.988Z,99308.56
2023-03-11T03:30:15.568Z,99326.06
2023-03-11T03:32:43.632Z,99324.03
2023-03-11T03:35:13.862Z,99316.50
2023-03-11T03:38:13.833Z,99317.06
2023-03-11T03:40:47.499Z,99307.00
2023-03-11T03:43:17.769Z,99321.56
2023-03-11T03:45:55.128Z,99328.19
2023-03-11T03:48:23.267Z,99324.28
2023-03-11T03:50:50.930Z,99331.50
2023-03-11T03:53:19.780Z,99338.13
2023-03-11T03:55:49.810Z,99336.94
2023-03-11T03:58:17.932Z,99337.66
2023-03-11T04:00:45.710Z,99340.13
2023-03-11T04:03:13.342Z,99322.16
2023-03-11T04:05:50.657Z,99298.34
2023-03-11T04:08:18.380Z,99297.78
2023-03-11T04:10:57.268Z,99320.03
2023-03-11T04:13:24.920Z,99319.44
2023-03-11T04:15:52.198Z,99337.66
2023-03-11T04:18:22.763Z,99347.38
2023-03-11T04:20:50.692Z,99363.09
2023-03-11T04:23:17.996Z,99388.28
2023-03-11T04:25:45.355Z,99401.91
2023-03-11T04:28:13.405Z,99387.34
2023-03-11T04:30:41.509Z,99390.53
2023-03-11T04:33:08.913Z,99377.41
2023-03-11T04:35:38.905Z,99372.44
2023-03-11T04:38:07.736Z,99368.75
2023-03-11T04:40:37.569Z,99347.81
2023-03-11T04:43:05.440Z,99343.06
2023-03-11T04:45:33.629Z,99345.09
2023-03-11T04:48:03.409Z,99324.38
2023-03-11T04:50:32.310Z,99301.47
2023-03-11T04:53:00.054Z,99301.56
2023-03-11T04:55:27.707Z,99303.09
2023-03-11T04:57:55.090Z,99304.78
2023-03-11T05:00:24.949Z,99319.66
2023-03-11T05:03:00.676Z,99329.16
2023-03-11T05:05:28.822Z,99322.59
2023-03-11T05:07:56.589Z,99321.44
2023-03-11T05:10:24.350Z,99299.06
2023-03-11T05:12:55.756Z,99291.63
2023-03-11T05:15:26.854Z,99276.50
2023-03-11T05:17:54.353Z,99282.88
2023-03-11T05:20:22.046Z,99282.75
2023-03-11T05:22:49.539Z,99295.16
2023-03-11T05:25:17.263Z,99307.09
2023-03-11T05:27:45.329Z,99323.31
2023-03-11T05:30:15.366Z,99336.44
2023-03-11T05:32:44.753Z,99369.84
2023-03-11T05:35:12.908Z,99406.13
2023-03-11T05:37:41.142Z,99427.28
2023-03-11T05:40:12.167Z,99434.91
2023-03-11T05:42:41.291Z,99426.81
2023-03-11T05:45:10.644Z,99424.19
2023-03-11T05:47:42.167Z,99406.59
2023-03-11T05:50:12.804Z,99405.88
2023-03-11T05:52:41.913Z,99382.44
2023-03-11T05:55:11.457Z,99348.97
2023-03-11T05:57:40.763Z,99327.25
2023-03-11T06:00:12.720Z,99303.34
2023-03-11T06:02:47.619Z,99274.47
2023-03-11T06:05:17.902Z,99287.97
2023-03-11T06:07:47.294Z,99294.47
2023-03-11T06:10:15.181Z,99336.13
2023-03-11T06:12:43.238Z,99370.91
2023-03-11T06:15:29.453Z,99359.78
2023-03-11T06:17:56.834Z,99370.88
2023-03-11T06:20:24.839Z,99385.94
2023-03-11T06:22:52.764Z,99378.22
2023-03-11T06:25:23.661Z,99376.94
2023-03-11T06:27:53.359Z,99363.22
2023-03-11T06:30:22.001Z,99347.47
2023-03-11T06:32:57.254Z,99351.03
2023-03-11T06:35:24.842Z,99353.41
2023-03-11T06:37:52.666Z,99352.66
2023-03-11T06:40:20.348Z,99345.44
2023-03-11T06:42:47.853Z,99348.41
2023-03-11T06:45:15.547Z,99333.81
2023-03-11T06:47:44.498Z,99351.22
2023-03-11T06:50:12.202Z,99352.97
2023-03-11T06:52:40.158Z,99370.97
2023-03-11T06:55:09.210Z,99355.97
2023-03-11T06:57:37.452Z,99348.75
2023-03-11T07:00:12.261Z,99346.78
2023-03-11T07:02:41.478Z,99344.63
2023-03-11T07:05:10.316Z,99345.31
2023-03-11T07:07:38.182Z,99343.41
2023-03-11T07:10:06.498Z,99354.88
2023-03-11T07:12:33.826Z,99362.72
2023-03-11T07:15:04.329Z,99359.84
2023-03-11T07:17:34.018Z,99376.53
2023-03-11T07:20:03.277Z,99375.41
2023-03-11T07:22:30.664Z,99365.69
2023-03-11T07:24:57.996Z,99359.41
2023-03-11T07:27:28.078Z,99364.53
2023-03-11T07:29:55.383Z,99365.00
2023-03-11T07:32:22.746Z,99361.41
2023-03-11T07:34:50.038Z,99367.09
2023-03-11T07:37:17.785Z,99358.91
2023-03-11T07:39:45.289Z,99363.09
2023-03-11T07:42:12.614Z,99362.03
2023-03-11T07:44:40.429Z,99364.56
2023-03-11T07:47:07.705Z,99371.63
2023-03-11T07:49:38.062Z,99380.00
2023-03-11T07:52:05.699Z,99393.78
2023-03-11T07:54:32.939Z,99399.72
2023-03-11T07:57:01.204Z,99385.00
2023-03-11T07:59:29.102Z,99384.06
2023-03-11T08:01:57.158Z,99382.47
2023-03-11T08:04:24.610Z,99382.03
2023-03-11T08:06:52.379Z,99383.28
2023-03-11T08:09:19.655Z,99381.72
2023-03-11T08:11:49.478Z,99396.38
2023-03-11T08:14:17.178Z,99393.44
2023-03-11T08:16:44.453Z,99397.78
2023-03-11T08:19:13.462Z,99396.81
2023-03-11T08:21:41.343Z,99402.75
2023-03-11T08:24:12.504Z,99394.22
2023-03-11T08:26:40.953Z,99406.03
2023-03-11T08:29:08.560Z,99407.72
2023-03-11T08:31:36.051Z,99396.81
2023-03-11T08:34:09.464Z,99393.19
2023-03-11T08:36:36.805Z,99401.59
2023-03-11T08:39:04.301Z,99401.66
2023-03-11T08:41:31.674Z,99418.66
2023-03-11T08:43:59.284Z,99418.25
2023-03-11T08:46:31.965Z,99399.63
2023-03-11T08:49:01.473Z,99400.28
2023-03-11T08:51:31.951Z,99391.25
2023-03-11T08:54:00.402Z,99377.25
2023-03-11T08:56:28.584Z,99364.63
2023-03-11T08:58:55.866Z,99369.94
2023-03-11T09:01:24.049Z,99363.06
2023-03-11T09:03:52.626Z,99369.06
2023-03-11T09:06:22.176Z,99380.31
2023-03-11T09:08:50.153Z,99392.91
2023-03-11T09:11:18.771Z,99383.88
2023-03-11T09:13:46.030Z,99390.22
2023-03-11T09:16:20.445Z,99369.56
2023-03-11T09:18:48.335Z,99379.25
2023-03-11T09:21:15.828Z,99368.03
2023-03-11T09:23:44.537Z,99365.84
2023-03-11T09:26:12.520Z,99368.34
2023-03-11T09:28:41.455Z,99363.13
2023-03-11T09:31:09.611Z,99373.31
2023-03-11T09:33:39.159Z,99373.63
2023-03-11T09:36:07.574Z,99363.78
2023-03-11T09:38:34.878Z,99364.88
2023-03-11T09:41:13.337Z,99366.78
2023-03-11T09:44:08.639Z,99371.19
2023-03-11T09:47:06.667Z,99387.41
2023-03-11T09:50:40.406Z,99414.34
2023-03-11T09:53:23.817Z,99427.25
2023-03-11T09:56:01.431Z,99436.63
2023-03-11T09:58:39.424Z,99441.81
2023-03-11T10:01:16.341Z,99425.88
2023-03-11T10:03:45.096Z,99404.44
2023-03-11T10:06:14.808Z,99411.00
2023-03-11T10:09:13.404Z,99403.81
2023-03-11T10:11:51.267Z,99418.94
2023-03-11T10:14:33.526Z,99410.69
2023-03-11T10:17:14.586Z,99416.44
2023-03-11T10:19:55.301Z,99416.63
2023-03-11T10:22:34.414Z,99429.38
2023-03-11T10:25:15.022Z,99447.59
2023-03-11T10:27:48.254Z,99459.66
2023-03-11T10:30:36.948Z,99450.81
2023-03-11T10:33:27.381Z,99458.25
2023-03-11T10:35:58.686Z,99434.00
2023-03-11T10:38:32.304Z,99438.19
2023-03-11T10:41:11.363Z,99449.72
2023-03-11T10:43:47.465Z,99457.13
2023-03-11T10:46:20.693Z,99436.47
2023-03-11T10:48:47.991Z,99449.09
2023-03-11T10:51:22.730Z,99439.25
2023-03-11T10:53:55.979Z,99437.56
2023-03-11T10:56:32.819Z,99435.94
2023-03-11T10:59:01.555Z,99439.41
2023-03-11T11:01:30.009Z,99440.25
2023-03-11T11:04:00.818Z,99433.94
2023-03-11T11:06:33.774Z,99432.28
2023-03-11T11:09:22.427Z,99436.69
2023-03-11T11:12:11.952Z,99423.91
2023-03-11T11:14:50.710Z,99411.69
2023-03-11T11:17:29.129Z,99413.38
2023-03-11T11:19:59.074Z,99421.00
2023-03-11T11:22:28.175Z,99404.06
2023-03-11T11:24:56.626Z,99417.22
2023-03-11T11:27:26.346Z,99399.13
2023-03-11T11:30:08.980Z,99412.19
2023-03-11T11:32:37.266Z,99397.97
2023-03-11T11:35:07.833Z,99404.28
2023-03-11T11:37:38.802Z,99403.06
2023-03-11T11:40:15.799Z,99410.03
2023-03-11T11:42:54.102Z,99407.94
2023-03-11T11:45:34.421Z,99396.44
2023-03-11T11:48:12.492Z,99410.91
2023-03-11T11:50:52.151Z,99396.78
2023-03-11T11:53:28.681Z,99397.09
2023-03-11T11:55:56.805Z,99408.34
2023-03-11T11:58:24.338Z,99398.78
2023-03-11T12:01:04.176Z,99396.31
2023-03-11T12:03:52.965Z,99389.91
2023-03-11T12:06:28.140Z,99386.63
2023-03-11T12:09:24.411Z,99388.38
2023-03-11T12:12:13.280Z,99381.22
2023-03-11T12:14:54.718Z,99374.44
2023-03-11T12:17:26.041Z,99365.44
2023-03-11T12:19:59.679Z,99374.78
2023-03-11T12:22:36.538Z,99374.59
2023-03-11T12:25:22.255Z,99373.13
2023-03-11T12:28:16.770Z,99370.81
2023-03-11T12:31:03.400Z,99375.59
2023-03-11T12:33:39.907Z,99381.47
2023-03-11T12:36:20.522Z,99385.25
2023-03-11T12:38:49.410Z,99381.28
2023-03-11T12:41:42.888Z,99381.78
2023-03-11T12:44:40.143Z,99377.91
2023-03-11T12:47:08.043Z,99374.84
2023-03-11T12:49:41.672Z,99357.47
2023-03-11T12:52:13.251Z,99349.31
2023-03-11T12:54:40.800Z,99346.97
2023-03-11T12:57:17.224Z,99355.25
2023-03-11T12:59:56.898Z,99345.41
2023-03-11T13:02:36.881Z,99347.47
2023-03-11T13:05:51.303Z,99336.09
2023-03-11T13:08:24.238Z,99338.69
2023-03-11T13:10:53.858Z,99341.50
2023-03-11T13:13:30.931Z,99336.19
2023-03-11T13:16:10.961Z,99344.59
2023-03-11T13:18:39.709Z,99348.94
2023-03-11T13:21:28.659Z,99347.78
2023-03-11T13:24:26.051Z,99335.59
2023-03-11T13:27:04.910Z,99339.97
2023-03-11T13:29:55.634Z,99346.47
2023-03-11T13:32:27.142Z,99336.00
2023-03-11T13:35:16.423Z,99359.16
2023-03-11T13:38:13.204Z,99343.47
2023-03-11T13:40:45.165Z,99332.31
2023-03-11T13:43:25.496Z,99338.22
2023-03-11T13:46:05.879Z,99340.41
2023-03-11T13:48:42.080Z,99333.72
2023-03-11T13:51:21.758Z,99333.50
2023-03-11T13:53:59.646Z,99330.97
2023-03-11T13:56:29.484Z,99329.34
2023-03-11T13:59:16.098Z,99335.66
2023-03-11T14:01:51.593Z,99346.13
2023-03-11T14:04:27.112Z,99325.25
2023-03-11T14:06:54.936Z,99262.16
2023-03-11T14:09:24.327Z,99169.81
2023-03-11T14:11:54.607Z,99064.47
2023-03-11T14:14:40.165Z,99072.81
2023-03-11T14:17:15.820Z,99083.91
2023-03-11T14:19:43.945Z,99093.75
2023-03-11T14:22:11.295Z,99111.91
2023-03-11T14:24:39.837Z,99124.44
2023-03-11T14:27:10.281Z,99148.25
2023-03-11T14:29:40.129Z,99157.50
2023-03-11T14:32:26.525Z,99158.34
2023-03-11T14:34:54.454Z,99171.06
2023-03-11T14:37:38.341Z,99183.19
2023-03-11T14:40:31.004Z,99187.84
2023-03-11T14:43:03.828Z,99213.66
2023-03-11T14:45:33.908Z,99224.38
2023-03-11T14:48:01.399Z,99322.50
2023-03-11T14:50:35.199Z,99346.59
2023-03-11T14:53:08.810Z,99365.50
2023-03-11T14:55:56.449Z,99352.59
2023-03-11T14:58:37.649Z,99360.88
2023-03-11T15:01:09.422Z,99364.41
2023-03-11T15:03:50.388Z,99358.94
2023-03-11T15:06:19.673Z,99350.41
2023-03-11T15:08:55.313Z,99369.53
2023-03-11T15:11:28.354Z,99375.25
2023-03-11T15:14:16.935Z,99371.75
2023-03-11T15:16:44.706Z,99373.13
2023-03-11T15:19:21.500Z,99386.31
2023-03-11T15:21:50.936Z,99380.84
2023-03-11T15:24:22.142Z,99374.56
2023-03-11T15:27:30.931Z,99376.28
2023-03-11T15:30:00.642Z,99386.06
2023-03-11T15:32:42.850Z,99391.31
2023-03-11T15:35:13.255Z,99398.91
2023-03-11T15:37:42.410Z,99393.34
2023-03-11T15:40:26.150Z,99391.16
2023-03-11T15:43:15.888Z,99414.22
2023-03-11T15:45:44.410Z,99405.91
2023-03-11T15:48:13.931Z,99405.06
2023-03-11T15:50:58.659Z,99415.81
2023-03-11T15:53:28.166Z,99410.84
2023-03-11T15:56:07.389Z,99400.16
2023-03-11T15:58:38.271Z,99413.78
2023-03-11T16:01:06.237Z,99413.97
2023-03-11T16:03:34.055Z,99423.72
2023-03-11T16:06:01.335Z,99415.00
2023-03-11T16:08:29.014Z,99420.03
2023-03-11T16:10:58.119Z,99423.66
2023-03-11T16:13:25.577Z,99421.25
2023-03-11T16:15:53.388Z,99421.50
2023-03-11T16:18:20.726Z,99426.97
2023-03-11T16:20:51.733Z,99425.00
2023-03-11T16:23:23.743Z,99432.50
2023-03-11T16:25:56.266Z,99432.78
2023-03-11T16:28:23.600Z,99440.41
2023-03-11T16:30:51.263Z,99425.09
2023-03-11T16:33:18.868Z,99437.22
2023-03-11T16:35:46.427Z,99438.63
2023-03-11T16:38:14.174Z,99446.31
2023-03-11T16:40:41.698Z,99453.72
2023-03-11T16:43:11.326Z,99448.66
2023-03-11T16:45:38.569Z,99461.13
2023-03-11T16:48:07.149Z,99464.19
2023-03-11T16:50:36.975Z,99462.78
2023-03-11T16:53:05.426Z,99460.09
2023-03-11T16:57:59.722Z,99480.97
2023-03-11T17:00:27.115Z,99479.03
2023-03-11T17:02:54.524Z,99479.50
2023-03-11T17:05:21.888Z,99487.06
2023-03-11T17:07:53.403Z,99490.06
2023-03-11T17:10:23.770Z,99506.03
2023-03-11T17:12:51.472Z,99498.44
2023-03-11T17:15:19.317Z,99497.41
2023-03-11T17:17:47.294Z,99503.00
2023-03-11T17:20:14.561Z,99512.16
2023-03-11T17:22:41.826Z,99515.03
2023-03-11T17:25:09.793Z,99518.31
2023-03-11T17:27:37.612Z,99531.81
2023-03-11T17:30:06.422Z,99521.97
2023-03-11T17:32:33.800Z,99530.00
2023-03-11T17:35:01.417Z,99534.19
2023-03-11T17:37:29.250Z,99533.38
2023-03-11T17:39:56.953Z,99544.94
2023-03-11T17:42:24.864Z,99544.47
2023-03-11T17:44:56.283Z,99548.63
2023-03-11T17:47:27.536Z,99553.31
2023-03-11T17:49:55.325Z,99561.59
2023-03-11T17:52:23.164Z,99570.13
2023-03-11T17:54:50.595Z,99572.63
2023-03-11T17:57:17.887Z,99577.66
2023-03-11T17:59:45.768Z,99575.16
2023-03-11T18:02:14.184Z,99577.94
2023-03-11T18:04:45.805Z,99583.72
2023-03-11T18:07:13.148Z,99585.69
2023-03-11T18:09:40.596Z,99584.88
2023-03-11T18:12:09.013Z,99608.84
2023-03-11T18:14:36.737Z,99606.91
2023-03-11T18:17:04.646Z,99609.09
2023-03-11T18:19:32.076Z,99614.59
2023-03-11T18:21:59.873Z,99626.41
2023-03-11T18:24:27.150Z,99636.06
2023-03-11T18:26:54.975Z,99635.75
2023-03-11T18:29:24.329Z,99639.84
2023-03-11T18:31:52.212Z,99640.09
2023-03-11T18:34:20.077Z,99644.75
2023-03-11T18:36:49.103Z,99657.97
2023-03-11T18:39:16.891Z,99659.84
2023-03-11T18:41:44.216Z,99663.19
2023-03-11T18:44:11.671Z,99656.47
2023-03-11T18:46:39.128Z,99665.03
2023-03-11T18:49:06.452Z,99661.69
2023-03-11T18:51:34.483Z,99678.19
2023-03-11T18:54:02.600Z,99675.97
2023-03-11T18:56:33.215Z,99677.31
2023-03-11T18:59:01.420Z,99679.19
2023-03-11T19:01:28.951Z,99684.13
2023-03-11T19:03:58.799Z,99692.31
2023-03-11T19:06:28.358Z,99698.69
2023-03-11T19:08:57.785Z,99706.66
2023-03-11T19:11:25.763Z,99715.66
2023-03-11T19:13:55.619Z,99723.03
2023-03-11T19:16:26.271Z,99710.63
2023-03-11T19:18:55.209Z,99728.41
2023-03-11T19:21:23.279Z,99727.81
2023-03-11T19:23:52.848Z,99731.00
2023-03-11T19:26:21.046Z,99732.13
2023-03-11T19:28:51.105Z,99726.03
2023-03-11T19:31:18.469Z,99738.94
2023-03-11T19:33:47.020Z,99742.47
2023-03-11T19:36:15.071Z,99739.19
2023-03-11T19:38:43.005Z,99746.03
2023-03-11T19:41:18.410Z,99752.19
2023-03-11T19:43:47.179Z,99748.84
2023-03-11T19:46:20.462Z,99754.28
2023-03-11T19:48:48.729Z,99759.19
2023-03-11T19:51:17.279Z,99751.53
2023-03-11T19:53:45.436Z,99753.72
2023-03-11T19:56:13.054Z,99756.44
2023-03-11T19:58:42.673Z,99755.03
2023-03-11T20:01:21.024Z,99770.00
2023-03-11T20:03:48.385Z,99766.50
2023-03-11T20:06:18.374Z,99765.22
2023-03-11T20:08:46.473Z,99774.47
2023-03-11T20:11:13.753Z,99781.56
2023-03-11T20:13:43.969Z,99784.47
2023-03-11T20:16:16.062Z,99778.03
2023-03-11T20:18:45.947Z,99786.19
2023-03-11T20:21:14.255Z,99791.44
2023-03-11T20:23:41.597Z,99788.19
2023-03-11T20:26:19.104Z,99790.56
2023-03-11T20:28:47.084Z,99792.44
2023-03-11T20:31:20.286Z,99805.63
2023-03-11T20:33:49.200Z,99803.81
2023-03-11T20:36:22.625Z,99818.94
2023-03-11T20:38:54.585Z,99816.47
2023-03-11T20:41:24.430Z,99843.00
2023-03-11T20:43:53.843Z,99854.19
2023-03-11T20:46:21.806Z,99868.91
2023-03-11T20:48:49.226Z,99877.53
2023-03-11T20:51:20.280Z,99886.78
2023-03-11T20:53:48.144Z,99897.50
2023-03-11T20:56:24.234Z,99915.88
2023-03-11T20:58:55.756Z,99917.88
2023-03-11T21:01:27.321Z,99916.19
2023-03-11T21:03:56.969Z,99937.63
2023-03-11T21:06:29.904Z,99941.25
2023-03-11T21:09:00.223Z,99945.31
2023-03-11T21:11:28.335Z,99940.59
2023-03-11T21:13:56.028Z,99947.56
2023-03-11T21:16:23.880Z,99954.56
2023-03-11T21:18:52.019Z,99956.75
2023-03-11T21:21:20.261Z,99956.16
2023-03-11T21:23:49.137Z,99959.16
2023-03-11T21:26:17.608Z,99971.19
2023-03-11T21:28:46.666Z,99968.06
2023-03-11T21:31:18.053Z,99976.34
2023-03-11T21:33:46.467Z,99981.31
2023-03-11T21:36:16.026Z,99990.44
2023-03-11T21:38:44.415Z,99996.88
2023-03-11T21:41:26.349Z,99999.03
2023-03-11T21:43:55.445Z,99995.03
2023-03-11T21:46:25.478Z,100004.53
2023-03-11T21:48:53.438Z,100009.66
2023-03-11T21:51:22.111Z,100013.94
2023-03-11T21:53:49.886Z,100020.72
2023-03-11T21:56:17.938Z,100029.78
2023-03-11T21:58:46.009Z,100040.97
2023-03-11T22:01:14.193Z,100038.47
2023-03-11T22:03:42.331Z,100040.50
2023-03-11T22:06:12.728Z,100042.84
2023-03-11T22:08:41.058Z,100048.09
2023-03-11T22:11:10.579Z,100056.06
2023-03-11T22:13:38.190Z,100063.81
2023-03-11T22:16:06.854Z,100069.38
2023-03-11T22:18:35.014Z,100077.94
2023-03-11T22:21:02.487Z,100077.84
2023-03-11T22:23:30.304Z,100086.97
2023-03-11T22:25:58.154Z,100089.44
2023-03-11T22:28:25.992Z,100103.50
2023-03-11T22:30:54.595Z,100108.91
2023-03-11T22:33:21.932Z,100119.41
2023-03-11T22:35:57.377Z,100124.25
2023-03-11T22:38:24.988Z,100134.56
2023-03-11T22:40:52.287Z,100130.09
2023-03-11T22:43:19.875Z,100138.88
2023-03-11T22:45:47.640Z,100141.66
2023-03-11T22:48:15.255Z,100142.38
2023-03-11T22:50:44.473Z,100140.56
2023-03-11T22:53:12.915Z,100149.91
2023-03-11T22:55:41.797Z,100157.06
2023-03-11T22:58:09.221Z,100168.59
2023-03-11T23:00:37.031Z,100171.72
2023-03-11T23:03:04.492Z,100189.69
2023-03-11T23:05:32.452Z,100201.47
2023-03-11T23:07:59.758Z,100209.91
2023-03-11T23:10:27.517Z,100204.53
2023-03-11T23:12:54.881Z,100209.66
2023-03-11T23:15:22.279Z,100209.44
2023-03-11T23:17:50.127Z,100220.22
2023-03-11T23:20:17.747Z,100218.78
2023-03-11T23:22:45.515Z,100224.47
2023-03-11T23:25:16.504Z,100226.34
2023-03-11T23:27:45.351Z,100229.94
2023-03-11T23:30:16.494Z,100230.22
2023-03-11T23:32:44.655Z,100233.72
2023-03-11T23:35:12.690Z,100244.06
2023-03-11T23:37:39.988Z,100243.25
2023-03-11T23:40:09.462Z,100244.81
2023-03-11T23:42:36.710Z,100248.50
2023-03-11T23:45:05.159Z,100259.91
2023-03-11T23:47:32.965Z,100267.06
2023-03-11T23:50:00.271Z,100258.59
2023-03-11T23:52:27.597Z,100255.56
2023-03-11T23:54:55.705Z,100262.56
2023-03-11T23:57:23.469Z,100258.13
2023-03-11T23:59:51.949Z,100271.25
